In Rescue
 
Open Full Screen Window  High Contrast Mode
Wind Gusting 14 knots
11
October 30, 2020 1:44 AM EDT
Present Weather: Light Drizzle
Weather Information
Wind Direction
  340 °
Wind Speed
  11 kt (13 mph)
Wind Gust
  14 kt (16 mph)
Altimeter
29.89 in
Visibility
4 SM
Temperature
07° C
45° F
Dewpoint
06° C
43° F
Humidity
93%
1hr Rain Fall
00.00 in.
24hr Rain Fall
00.86 in.
Sky Condition
Overcast @ 800 ft
IFR

METAR KDLZ 300544Z AUTO 34011G14KT 4SM -DZ OVC008 07/06 A2989 RMK AO2

FAA Disclaimer: The data displayed is for advisory purposes only and is not to be used for flight planning or operations.